createdAt,value
2018-06-04T00:01:13.212Z,15.20
2018-06-04T00:03:42.159Z,17.00
2018-06-04T00:06:10.889Z,16.90
2018-06-04T00:08:39.680Z,16.30
2018-06-04T00:11:08.499Z,14.83
2018-06-04T00:13:37.230Z,16.50
2018-06-04T00:16:06.050Z,17.07
2018-06-04T00:18:34.978Z,14.93
2018-06-04T00:21:03.937Z,17.63
2018-06-04T00:23:32.894Z,16.83
2018-06-04T00:26:01.595Z,17.50
2018-06-04T00:28:30.509Z,18.03
2018-06-04T00:30:59.532Z,18.33
2018-06-04T00:33:28.580Z,17.17
2018-06-04T00:35:57.333Z,17.37
2018-06-04T00:38:25.918Z,16.53
2018-06-04T00:40:54.507Z,17.87
2018-06-04T00:43:23.346Z,19.23
2018-06-04T00:45:52.296Z,15.87
2018-06-04T00:48:21.227Z,17.77
2018-06-04T00:50:50.195Z,18.57
2018-06-04T00:53:18.913Z,18.13
2018-06-04T00:55:59.223Z,18.97
2018-06-04T00:58:28.188Z,16.30
2018-06-04T01:00:56.918Z,18.33
2018-06-04T01:03:25.778Z,17.33
2018-06-04T01:05:54.743Z,18.13
2018-06-04T01:08:23.469Z,16.67
2018-06-04T01:10:52.507Z,19.37
2018-06-04T01:13:21.250Z,17.30
2018-06-04T01:15:50.232Z,17.80
2018-06-04T01:18:19.059Z,19.03
2018-06-04T01:20:47.812Z,19.10
2018-06-04T01:23:16.661Z,18.80
2018-06-04T01:25:45.659Z,18.43
2018-06-04T01:28:14.383Z,18.73
2018-06-04T01:30:43.263Z,19.30
2018-06-04T01:33:12.247Z,18.73
2018-06-04T01:35:40.990Z,18.93
2018-06-04T01:38:09.878Z,19.10
2018-06-04T01:40:38.598Z,20.27
2018-06-04T01:43:07.202Z,19.37
2018-06-04T01:45:36.063Z,20.10
2018-06-04T01:48:05.051Z,18.00
2018-06-04T01:50:34.002Z,18.60
2018-06-04T01:53:02.975Z,19.27
2018-06-04T01:55:31.701Z,20.50
2018-06-04T01:58:00.539Z,20.40
2018-06-04T02:00:29.494Z,19.90
2018-06-04T02:02:58.478Z,18.60
2018-06-04T02:05:27.419Z,19.60
2018-06-04T02:07:56.146Z,20.23
2018-06-04T02:10:24.978Z,20.10
2018-06-04T02:12:53.948Z,19.97
2018-06-04T02:15:22.689Z,19.33
2018-06-04T02:17:51.517Z,20.47
2018-06-04T02:20:20.254Z,20.03
2018-06-04T02:22:48.866Z,21.20
2018-06-04T02:25:17.680Z,21.10
2018-06-04T02:27:46.645Z,18.73
2018-06-04T02:30:15.354Z,20.93
2018-06-04T02:32:44.214Z,21.17
2018-06-04T02:35:12.939Z,20.20
2018-06-04T02:37:41.548Z,20.07
2018-06-04T02:40:10.130Z,21.70
2018-06-04T02:42:38.930Z,21.70
2018-06-04T02:45:07.650Z,20.37
2018-06-04T02:50:34.114Z,20.77
2018-06-04T02:53:02.954Z,23.30
2018-06-04T02:55:31.887Z,22.20
2018-06-04T02:58:00.610Z,21.53
2018-06-04T03:00:29.463Z,20.90
2018-06-04T03:02:58.182Z,23.30
2018-06-04T03:05:26.773Z,22.17
2018-06-04T03:07:55.619Z,22.30
2018-06-04T03:10:24.580Z,22.37
2018-06-04T03:12:53.326Z,23.60
2018-06-04T03:15:22.188Z,24.47
2018-06-04T03:17:50.930Z,22.73
2018-06-04T03:20:19.557Z,24.50
2018-06-04T03:22:48.412Z,20.37
2018-06-04T03:25:17.126Z,21.27
2018-06-04T03:27:45.724Z,22.50
2018-06-04T03:30:14.327Z,24.33
2018-06-04T03:32:43.099Z,23.03
2018-06-04T03:35:11.702Z,25.00
2018-06-04T03:37:40.298Z,25.70
2018-06-04T03:40:09.143Z,24.40
2018-06-04T03:42:38.127Z,25.37
2018-06-04T03:45:07.116Z,24.27
2018-06-04T03:47:36.099Z,24.23
2018-06-04T03:50:04.876Z,23.10
2018-06-04T03:52:33.691Z,25.03
2018-06-04T03:55:02.622Z,24.47
2018-06-04T03:57:31.366Z,25.50
2018-06-04T04:00:00.227Z,24.37
2018-06-04T04:02:28.935Z,24.73
2018-06-04T04:04:57.561Z,25.07
2018-06-04T04:07:26.387Z,25.57
2018-06-04T04:09:55.327Z,25.93
2018-06-04T04:12:24.061Z,25.27
2018-06-04T04:14:52.907Z,25.73
2018-06-04T04:17:21.638Z,23.23
2018-06-04T04:19:50.246Z,25.27
2018-06-04T04:22:20.083Z,26.20
2018-06-04T04:24:48.887Z,26.00
2018-06-04T04:27:17.867Z,26.07
2018-06-04T04:29:46.594Z,24.33
2018-06-04T04:32:15.419Z,28.00
2018-06-04T04:34:44.412Z,25.10
2018-06-04T04:37:13.139Z,26.13
2018-06-04T04:39:41.755Z,25.27
2018-06-04T04:42:11.104Z,25.70
2018-06-04T04:44:39.830Z,25.10
2018-06-04T04:47:08.671Z,27.27
2018-06-04T04:49:37.390Z,25.37
2018-06-04T04:52:06.212Z,27.97
2018-06-04T04:54:35.207Z,26.37
2018-06-04T04:57:03.920Z,26.03
2018-06-04T04:59:32.783Z,28.00
2018-06-04T05:02:01.780Z,27.83
2018-06-04T05:04:30.759Z,28.13
2018-06-04T05:06:59.747Z,27.70
2018-06-04T05:09:28.514Z,27.10
2018-06-04T05:11:57.110Z,28.70
2018-06-04T05:14:25.988Z,27.60
2018-06-04T05:16:54.743Z,28.10
2018-06-04T05:19:23.568Z,28.70
2018-06-04T05:21:52.543Z,29.13
2018-06-04T05:24:21.273Z,29.87
2018-06-04T05:26:50.120Z,27.43
2018-06-04T05:29:19.090Z,29.73
2018-06-04T05:31:48.115Z,25.60
2018-06-04T05:34:17.115Z,28.87
2018-06-04T05:36:45.890Z,29.93
2018-06-04T05:39:14.744Z,27.97
2018-06-04T05:41:43.523Z,29.00
2018-06-04T05:44:12.179Z,27.27
2018-06-04T05:46:41.062Z,29.17
2018-06-04T05:49:09.796Z,29.20
2018-06-04T05:51:38.403Z,28.70
2018-06-04T05:54:07.271Z,29.10
2018-06-04T05:56:36.027Z,29.07
2018-06-04T05:59:04.650Z,28.40
2018-06-04T06:01:33.511Z,29.80
2018-06-04T06:04:02.283Z,30.27
2018-06-04T06:06:30.891Z,26.53
2018-06-04T06:08:59.755Z,27.10
2018-06-04T06:11:28.746Z,26.13
2018-06-04T06:13:57.487Z,27.33
2018-06-04T06:16:26.333Z,27.83
2018-06-04T06:18:55.050Z,27.80
2018-06-04T06:21:23.670Z,27.67
2018-06-04T06:23:52.554Z,29.00
2018-06-04T06:26:21.506Z,28.03
2018-06-04T06:28:50.471Z,27.40
2018-06-04T06:31:19.219Z,26.40
2018-06-04T06:33:47.836Z,26.13
2018-06-04T06:36:16.442Z,25.33
2018-06-04T06:38:45.312Z,23.77
2018-06-04T06:41:15.328Z,26.40
2018-06-04T06:43:43.972Z,23.10
2018-06-04T06:46:12.583Z,25.00
2018-06-04T06:48:41.435Z,25.17
2018-06-04T06:51:10.407Z,24.07
2018-06-04T06:53:39.136Z,23.20
2018-06-04T06:56:08.005Z,23.90
2018-06-04T06:58:36.738Z,23.77
2018-06-04T07:01:05.358Z,24.07
2018-06-04T07:03:34.211Z,21.73
2018-06-04T07:06:03.456Z,23.30
2018-06-04T07:08:32.183Z,22.63
2018-06-04T07:11:01.068Z,21.27
2018-06-04T07:13:29.790Z,20.23
2018-06-04T07:15:58.671Z,23.10
2018-06-04T07:18:27.427Z,19.67
2018-06-04T07:20:56.011Z,22.83
2018-06-04T07:23:24.875Z,20.77
2018-06-04T07:25:53.599Z,20.63
2018-06-04T07:28:22.198Z,21.10
2018-06-04T07:30:50.826Z,20.70
2018-06-04T07:33:19.418Z,19.50
2018-06-04T07:35:48.243Z,21.80
2018-06-04T07:38:16.978Z,21.00
2018-06-04T07:40:45.851Z,20.20
2018-06-04T07:43:14.847Z,21.10
2018-06-04T07:45:43.598Z,17.20
2018-06-04T07:48:12.468Z,19.87
2018-06-04T07:50:41.204Z,22.20
2018-06-04T07:53:10.071Z,18.97
2018-06-04T07:55:38.957Z,19.63
2018-06-04T07:58:07.720Z,19.87
2018-06-04T08:00:36.620Z,22.50
2018-06-04T08:03:05.650Z,19.57
2018-06-04T08:05:34.487Z,19.90
2018-06-04T08:08:03.399Z,21.47
2018-06-04T08:10:32.134Z,21.23
2018-06-04T08:13:00.802Z,22.00
2018-06-04T08:15:29.683Z,20.37
2018-06-04T08:17:58.483Z,20.20
2018-06-04T08:20:27.124Z,18.10
2018-06-04T08:22:55.963Z,17.67
2018-06-04T08:25:24.783Z,19.40
2018-06-04T08:27:53.446Z,14.97
2018-06-04T08:30:22.326Z,15.80
2018-06-04T08:32:51.121Z,16.23
2018-06-04T08:35:19.754Z,18.47
2018-06-04T08:37:48.379Z,15.20
2018-06-04T08:40:17.230Z,15.90
2018-06-04T08:42:45.954Z,15.13
2018-06-04T08:45:14.888Z,15.67
2018-06-04T08:47:44.196Z,16.30
2018-06-04T08:50:13.179Z,13.40
2018-06-04T08:52:41.962Z,14.80
2018-06-04T08:55:10.647Z,14.10
2018-06-04T08:57:39.351Z,12.90
2018-06-04T09:00:08.223Z,14.27
2018-06-04T09:02:36.988Z,14.70
2018-06-04T09:05:06.000Z,14.53
2018-06-04T09:07:34.814Z,14.13
2018-06-04T09:10:03.483Z,14.93
2018-06-04T09:12:32.371Z,16.43
2018-06-04T09:15:01.137Z,14.03
2018-06-04T09:17:30.048Z,14.93
2018-06-04T09:19:59.029Z,13.53
2018-06-04T09:22:27.747Z,16.60
2018-06-04T09:24:56.367Z,13.93
2018-06-04T09:27:24.984Z,11.90
2018-06-04T09:29:53.582Z,15.40
2018-06-04T09:32:22.253Z,13.23
2018-06-04T09:34:51.079Z,15.30
2018-06-04T09:37:19.787Z,14.10
2018-06-04T09:39:48.405Z,15.90
2018-06-04T09:42:17.248Z,14.70
2018-06-04T09:44:46.207Z,13.83
2018-06-04T09:47:14.947Z,15.20
2018-06-04T09:49:43.880Z,14.63
2018-06-04T09:52:12.624Z,12.43
2018-06-04T09:54:41.243Z,14.33
2018-06-04T09:57:10.102Z,12.07
2018-06-04T09:59:38.811Z,14.20
2018-06-04T10:02:07.419Z,12.93
2018-06-04T10:04:36.281Z,11.87
2018-06-04T10:07:05.223Z,13.57
2018-06-04T10:09:33.956Z,14.73
2018-06-04T10:12:02.854Z,15.43
2018-06-04T10:14:31.606Z,14.43
2018-06-04T10:17:00.219Z,14.37
2018-06-04T10:19:28.831Z,13.47
2018-06-04T10:21:57.674Z,13.30
2018-06-04T10:24:26.405Z,14.83
2018-06-04T10:26:55.255Z,15.00
2018-06-04T10:29:23.999Z,16.03
2018-06-04T10:31:52.578Z,18.53
2018-06-04T10:34:21.243Z,14.17
2018-06-04T10:36:50.109Z,14.23
2018-06-04T10:39:18.835Z,15.27
2018-06-04T10:41:47.509Z,15.20
2018-06-04T10:44:16.192Z,13.10
2018-06-04T10:46:45.075Z,13.67
2018-06-04T10:49:15.100Z,12.57
2018-06-04T10:51:44.477Z,13.03
2018-06-04T10:54:13.287Z,15.67
2018-06-04T10:56:42.080Z,18.07
2018-06-04T10:59:10.927Z,16.20
2018-06-04T11:01:39.716Z,17.63
2018-06-04T11:04:08.336Z,18.00
2018-06-04T11:06:37.210Z,17.80
2018-06-04T11:09:08.330Z,18.20
2018-06-04T11:11:37.320Z,16.30
2018-06-04T11:14:06.323Z,19.77
2018-06-04T11:16:35.309Z,18.23
2018-06-04T11:19:04.288Z,15.63
2018-06-04T11:21:33.010Z,15.77
2018-06-04T11:24:01.882Z,18.30
2018-06-04T11:26:30.913Z,19.33
2018-06-04T11:28:59.875Z,15.70
2018-06-04T11:31:28.852Z,16.90
2018-06-04T11:33:57.619Z,17.40
2018-06-04T11:36:26.479Z,18.20
2018-06-04T11:38:56.052Z,16.83
2018-06-04T11:41:25.023Z,17.33
2018-06-04T11:43:53.762Z,18.93
2018-06-04T11:46:22.416Z,20.90
2018-06-04T11:48:51.254Z,20.93
2018-06-04T11:51:19.971Z,21.00
2018-06-04T11:53:48.590Z,19.27
2018-06-04T11:56:17.204Z,21.07
2018-06-04T11:58:46.133Z,20.40
2018-06-04T12:01:14.850Z,21.43
2018-06-04T12:03:43.716Z,21.37
2018-06-04T12:06:12.703Z,20.13
2018-06-04T12:08:41.502Z,16.90
2018-06-04T12:11:10.322Z,20.97
2018-06-04T12:13:39.070Z,17.53
2018-06-04T12:16:07.678Z,19.60
2018-06-04T12:18:36.586Z,19.37
2018-06-04T12:21:05.341Z,19.47
2018-06-04T12:23:33.938Z,19.37
2018-06-04T12:26:02.554Z,17.40
2018-06-04T12:28:31.407Z,17.60
2018-06-04T12:31:00.143Z,16.53
2018-06-04T12:33:29.022Z,18.00
2018-06-04T12:35:57.746Z,14.60
2018-06-04T12:38:26.364Z,18.33
2018-06-04T12:40:54.988Z,16.73
2018-06-04T12:43:23.689Z,18.33
2018-06-04T12:45:52.297Z,15.80
2018-06-04T12:48:20.975Z,17.10
2018-06-04T12:50:49.799Z,15.47
2018-06-04T12:53:18.530Z,18.13
2018-06-04T12:55:47.170Z,15.77
2018-06-04T12:58:16.054Z,17.00
2018-06-04T13:00:45.088Z,15.17
2018-06-04T13:03:13.838Z,14.00
2018-06-04T13:05:42.775Z,17.23
2018-06-04T13:08:11.775Z,18.73
2018-06-04T13:10:40.758Z,19.20
2018-06-04T13:13:09.466Z,19.83
2018-06-04T13:15:38.094Z,18.30
2018-06-04T13:18:06.779Z,16.53
2018-06-04T13:20:35.608Z,15.50
2018-06-04T13:23:04.364Z,17.67
2018-06-04T13:25:33.332Z,16.40
2018-06-04T13:28:02.086Z,19.37
2018-06-04T13:30:30.669Z,15.97
2018-06-04T13:32:59.522Z,19.57
2018-06-04T13:35:28.536Z,20.10
2018-06-04T13:37:57.319Z,17.50
2018-06-04T13:40:26.163Z,18.40
2018-06-04T13:42:55.159Z,19.47
2018-06-04T13:45:24.166Z,18.30
2018-06-04T13:47:53.164Z,18.83
2018-06-04T13:50:21.937Z,19.30
2018-06-04T13:52:50.767Z,19.40
2018-06-04T13:55:19.502Z,18.33
2018-06-04T13:57:48.117Z,17.23
2018-06-04T14:00:17.027Z,17.87
2018-06-04T14:02:45.783Z,15.77
2018-06-04T14:05:14.399Z,15.03
2018-06-04T14:07:43.256Z,15.80
2018-06-04T14:10:12.256Z,15.93
2018-06-04T14:12:41.307Z,13.90
2018-06-04T14:15:10.341Z,14.80
2018-06-04T14:17:39.094Z,14.20
2018-06-04T14:20:07.972Z,15.60
2018-06-04T14:22:36.731Z,14.40
2018-06-04T14:25:05.354Z,13.50
2018-06-04T14:27:34.294Z,17.47
2018-06-04T14:30:05.945Z,14.40
2018-06-04T14:32:39.747Z,17.60
2018-06-04T14:35:09.052Z,14.73
2018-06-04T14:37:38.054Z,16.67
2018-06-04T14:40:07.237Z,17.10
2018-06-04T14:42:36.060Z,16.37
2018-06-04T14:45:05.342Z,17.10
2018-06-04T14:47:34.094Z,17.20
2018-06-04T14:50:02.720Z,17.43
2018-06-04T14:52:32.690Z,17.00
2018-06-04T14:55:01.491Z,19.00
2018-06-04T14:57:30.234Z,17.70
2018-06-04T14:59:59.512Z,15.77
2018-06-04T15:02:28.226Z,18.60
2018-06-04T15:04:56.958Z,20.27
2018-06-04T15:07:25.883Z,19.57
2018-06-04T15:09:54.908Z,20.57
2018-06-04T15:12:23.706Z,16.27
2018-06-04T15:14:52.663Z,16.03
2018-06-04T15:17:21.437Z,16.90
2018-06-04T15:19:50.301Z,17.80
2018-06-04T15:22:19.360Z,15.67
2018-06-04T15:24:48.280Z,15.80
2018-06-04T15:27:17.155Z,15.20
2018-06-04T15:29:45.922Z,16.40
2018-06-04T15:32:15.436Z,16.13
2018-06-04T15:34:44.138Z,16.47
2018-06-04T15:37:12.811Z,19.03
2018-06-04T15:39:41.773Z,16.30
2018-06-04T15:42:10.544Z,15.10
2018-06-04T15:44:39.387Z,15.00
2018-06-04T15:47:08.379Z,25.87
2018-06-04T15:49:37.105Z,24.73
2018-06-04T15:52:06.150Z,25.00
2018-06-04T15:54:34.877Z,16.63
2018-06-04T15:57:03.493Z,16.63
2018-06-04T15:59:32.353Z,33.30
2018-06-04T16:02:01.115Z,17.83
2018-06-04T16:04:29.780Z,17.50
2018-06-04T16:06:58.666Z,18.77
2018-06-04T16:09:27.743Z,16.77
2018-06-04T16:11:56.769Z,16.60
2018-06-04T16:14:25.752Z,14.60
2018-06-04T16:16:54.477Z,14.77
2018-06-04T16:19:23.449Z,12.47
2018-06-04T16:21:52.463Z,14.10
2018-06-04T16:24:21.471Z,15.00
2018-06-04T16:26:50.487Z,17.60
2018-06-04T16:29:19.552Z,15.83
2018-06-04T16:31:48.519Z,15.63
2018-06-04T16:34:17.272Z,14.50
2018-06-04T16:36:45.904Z,13.40
2018-06-04T16:39:14.538Z,15.47
2018-06-04T16:41:43.190Z,13.90
2018-06-04T16:44:11.874Z,15.90
2018-06-04T16:46:40.817Z,13.50
2018-06-04T16:49:09.578Z,15.60
2018-06-04T16:51:38.491Z,16.37
2018-06-04T16:54:07.567Z,14.03
2018-06-04T16:56:36.326Z,15.00
2018-06-04T16:59:05.335Z,13.27
2018-06-04T17:01:34.070Z,13.87
2018-06-04T17:04:02.952Z,13.50
2018-06-04T17:06:32.033Z,13.00
2018-06-04T17:09:00.823Z,12.93
2018-06-04T17:11:29.695Z,13.07
2018-06-04T17:13:58.427Z,12.00
2018-06-04T17:16:27.058Z,11.90
2018-06-04T17:18:55.931Z,12.90
2018-06-04T17:21:24.710Z,14.37
2018-06-04T17:23:53.314Z,12.27
2018-06-04T17:26:22.184Z,10.53
2018-06-04T17:28:51.166Z,12.83
2018-06-04T17:31:19.938Z,12.63
2018-06-04T17:33:48.567Z,12.50
2018-06-04T17:36:17.476Z,11.60
2018-06-04T17:38:46.254Z,12.73
2018-06-04T17:41:15.126Z,10.57
2018-06-04T17:43:43.882Z,11.60
2018-06-04T17:46:12.518Z,11.70
2018-06-04T17:48:41.402Z,11.87
2018-06-04T17:51:10.115Z,10.70
2018-06-04T17:53:38.723Z,12.00
2018-06-04T17:56:07.598Z,11.83
2018-06-04T17:58:36.330Z,10.90
2018-06-04T18:01:04.997Z,11.00
2018-06-04T18:03:33.886Z,12.90
2018-06-04T18:06:04.134Z,10.90
2018-06-04T18:08:32.870Z,10.30
2018-06-04T18:11:01.478Z,12.00
2018-06-04T18:13:30.302Z,11.20
2018-06-04T18:15:59.048Z,10.27
2018-06-04T18:18:27.673Z,11.60
2018-06-04T18:20:56.509Z,11.30
2018-06-04T18:23:25.450Z,11.37
2018-06-04T18:25:54.194Z,12.27
2018-06-04T18:28:23.011Z,11.73
2018-06-04T18:30:51.962Z,11.33
2018-06-04T18:33:20.710Z,13.57
2018-06-04T18:35:49.587Z,12.50
2018-06-04T18:38:18.326Z,10.97
2018-06-04T18:40:46.951Z,10.30
2018-06-04T18:43:15.818Z,11.30
2018-06-04T18:45:44.540Z,12.47
2018-06-04T18:48:13.142Z,13.47
2018-06-04T18:50:42.004Z,11.03
2018-06-04T18:53:11.050Z,12.43
2018-06-04T18:55:40.034Z,10.57
2018-06-04T18:58:09.067Z,11.20
2018-06-04T19:00:37.723Z,10.80
2018-06-04T19:03:06.574Z,11.20
2018-06-04T19:05:35.294Z,9.80
2018-06-04T19:08:03.898Z,11.00
2018-06-04T19:10:32.750Z,11.13
2018-06-04T19:13:01.482Z,11.57
2018-06-04T19:15:30.131Z,10.60
2018-06-04T19:17:58.730Z,10.67
2018-06-04T19:20:27.687Z,9.90
2018-06-04T19:22:56.400Z,10.70
2018-06-04T19:25:25.014Z,11.30
2018-06-04T19:27:53.655Z,10.90
2018-06-04T19:30:22.507Z,10.50
2018-06-04T19:32:51.242Z,10.40
2018-06-04T19:35:20.094Z,13.00
2018-06-04T19:37:48.838Z,13.50
2018-06-04T19:40:17.460Z,12.73
2018-06-04T19:42:46.269Z,11.97
2018-06-04T19:45:15.274Z,12.53
2018-06-04T19:47:44.001Z,13.90
2018-06-04T19:50:12.829Z,12.17
2018-06-04T19:52:41.578Z,13.87
2018-06-04T19:55:10.183Z,16.77
2018-06-04T19:57:39.034Z,15.17
2018-06-04T20:00:07.750Z,15.10
2018-06-04T20:02:36.375Z,15.30
2018-06-04T20:05:05.235Z,16.13
2018-06-04T20:07:34.198Z,15.70
2018-06-04T20:10:02.938Z,13.90
2018-06-04T20:12:31.815Z,15.40
2018-06-04T20:15:00.518Z,15.07
2018-06-04T20:17:29.199Z,15.13
2018-06-04T20:19:58.023Z,15.00
2018-06-04T20:22:26.973Z,14.80
2018-06-04T20:24:55.682Z,16.77
2018-06-04T20:27:24.537Z,14.77
2018-06-04T20:29:53.268Z,15.20
2018-06-04T20:32:21.910Z,15.10
2018-06-04T20:34:50.759Z,15.80
2018-06-04T20:37:19.722Z,15.47
2018-06-04T20:39:48.705Z,15.60
2018-06-04T20:42:17.690Z,16.53
2018-06-04T20:44:46.423Z,14.90
2018-06-04T20:47:15.247Z,15.20
2018-06-04T20:49:43.975Z,17.60
2018-06-04T20:52:12.575Z,15.60
2018-06-04T20:54:41.411Z,15.67
2018-06-04T20:57:10.398Z,16.10
2018-06-04T20:59:39.139Z,16.73
2018-06-04T21:02:08.195Z,13.67
2018-06-04T21:04:37.159Z,14.50
2018-06-04T21:07:05.881Z,16.43
2018-06-04T21:09:34.711Z,14.60
2018-06-04T21:12:03.433Z,15.77
2018-06-04T21:14:32.275Z,16.30
2018-06-04T21:17:01.260Z,14.43
2018-06-04T21:19:30.026Z,15.57
2018-06-04T21:21:58.670Z,14.90
2018-06-04T21:24:27.497Z,16.80
2018-06-04T21:26:56.252Z,15.70
2018-06-04T21:29:24.866Z,14.60
2018-06-04T21:31:53.728Z,15.43
2018-06-04T21:34:22.486Z,15.87
2018-06-04T21:36:51.333Z,15.47
2018-06-04T21:39:20.290Z,15.73
2018-06-04T21:41:49.012Z,14.33
2018-06-04T21:44:17.859Z,15.70
2018-06-04T21:46:46.566Z,14.10
2018-06-04T21:49:19.503Z,14.47
2018-06-04T21:51:48.466Z,13.30
2018-06-04T21:54:17.174Z,14.43
2018-06-04T21:56:45.780Z,15.80
2018-06-04T21:59:14.639Z,13.60
2018-06-04T22:01:43.361Z,13.30
2018-06-04T22:04:11.991Z,13.20
2018-06-04T22:06:40.839Z,13.43
2018-06-04T22:09:09.792Z,12.90
2018-06-04T22:11:38.754Z,14.03
2018-06-04T22:14:07.722Z,14.10
2018-06-04T22:16:36.438Z,15.33
2018-06-04T22:19:05.290Z,13.37
2018-06-04T22:21:34.302Z,14.10
2018-06-04T22:24:03.042Z,14.93
2018-06-04T22:26:31.884Z,15.53
2018-06-04T22:29:00.605Z,15.73
2018-06-04T22:31:29.189Z,14.80
2018-06-04T22:33:58.082Z,17.40
2018-06-04T22:36:26.782Z,19.20
2018-06-04T22:38:55.398Z,19.63
2018-06-04T22:41:24.238Z,17.07
2018-06-04T22:43:52.966Z,18.60
2018-06-04T22:46:21.559Z,17.97
2018-06-04T22:48:50.161Z,19.30
2018-06-04T22:51:19.006Z,19.73
2018-06-04T22:53:47.698Z,20.30
2018-06-04T22:56:16.319Z,20.10
2018-06-04T22:58:45.167Z,21.20
2018-06-04T23:01:14.110Z,20.90
2018-06-04T23:03:42.842Z,22.60
2018-06-04T23:06:11.691Z,21.50
2018-06-04T23:08:40.405Z,21.40
2018-06-04T23:11:09.005Z,21.50
2018-06-04T23:13:37.851Z,23.17
2018-06-04T23:16:06.574Z,22.27
2018-06-04T23:18:35.186Z,21.87
2018-06-04T23:21:04.035Z,21.87
2018-06-04T23:23:33.060Z,22.97
2018-06-04T23:26:01.802Z,23.50
2018-06-04T23:28:30.442Z,25.50
2018-06-04T23:30:59.279Z,22.20
2018-06-04T23:33:27.994Z,22.83
2018-06-04T23:35:56.848Z,24.10
2018-06-04T23:38:25.794Z,24.60
2018-06-04T23:40:54.525Z,23.03
2018-06-04T23:43:23.346Z,23.30
2018-06-04T23:45:52.110Z,24.10
2018-06-04T23:48:20.702Z,23.30
2018-06-04T23:50:49.543Z,24.00
2018-06-04T23:53:18.495Z,25.20
2018-06-04T23:55:47.246Z,23.37
2018-06-04T23:58:16.063Z,25.40
